createdAt,value
2023-05-24T00:00:34.429Z,4.50
2023-05-24T00:01:38.592Z,5.00
2023-05-24T00:02:43.474Z,6.00
2023-05-24T00:03:48.052Z,6.00
2023-05-24T00:04:52.217Z,4.50
2023-05-24T00:05:56.602Z,5.75
2023-05-24T00:07:00.915Z,6.00
2023-05-24T00:08:05.428Z,6.25
2023-05-24T00:09:09.523Z,6.00
2023-05-24T00:10:14.247Z,5.00
2023-05-24T00:11:18.559Z,6.00
2023-05-24T00:12:22.971Z,5.50
2023-05-24T00:13:27.063Z,6.00
2023-05-24T00:14:31.399Z,6.50
2023-05-24T00:15:35.695Z,6.50
2023-05-24T00:16:39.949Z,7.00
2023-05-24T00:17:44.335Z,6.00
2023-05-24T00:18:48.610Z,5.00
2023-05-24T00:19:52.942Z,5.75
2023-05-24T00:20:57.281Z,5.75
2023-05-24T00:22:01.634Z,5.00
2023-05-24T00:23:05.956Z,6.50
2023-05-24T00:24:10.244Z,6.00
2023-05-24T00:25:14.471Z,6.50
2023-05-24T00:26:18.769Z,6.50
2023-05-24T00:27:23.183Z,6.75
2023-05-24T00:28:27.285Z,6.50
2023-05-24T00:29:32.402Z,7.00
2023-05-24T00:30:37.131Z,6.50
2023-05-24T00:31:41.459Z,6.50
2023-05-24T00:32:45.831Z,6.50
2023-05-24T00:33:49.854Z,6.00
2023-05-24T00:34:53.851Z,6.25
2023-05-24T00:35:58.070Z,7.00
2023-05-24T00:37:02.155Z,6.00
2023-05-24T00:38:06.267Z,4.50
2023-05-24T00:39:10.268Z,6.50
2023-05-24T00:40:14.338Z,5.75
2023-05-24T00:41:18.368Z,5.00
2023-05-24T00:42:22.419Z,4.75
2023-05-24T00:43:26.580Z,4.50
2023-05-24T00:44:30.708Z,6.50
2023-05-24T00:45:34.883Z,5.75
2023-05-24T00:46:39.000Z,4.00
2023-05-24T00:47:43.116Z,5.25
2023-05-24T00:48:47.208Z,7.00
2023-05-24T00:49:51.313Z,5.00
2023-05-24T00:50:55.286Z,5.50
2023-05-24T00:51:59.456Z,6.00
2023-05-24T00:53:03.920Z,5.50
2023-05-24T00:54:08.121Z,5.25
2023-05-24T00:55:12.233Z,6.50
2023-05-24T00:56:16.356Z,6.75
2023-05-24T00:57:20.536Z,5.50
2023-05-24T00:58:24.761Z,5.25
2023-05-24T00:59:28.957Z,6.25
2023-05-24T01:00:33.262Z,7.50
2023-05-24T01:01:37.743Z,5.00
2023-05-24T01:02:42.143Z,7.00
2023-05-24T01:03:46.895Z,8.00
2023-05-24T01:04:51.420Z,6.25
2023-05-24T01:05:55.796Z,5.75
2023-05-24T01:06:59.835Z,5.50
2023-05-24T01:08:04.000Z,6.00
2023-05-24T01:09:08.062Z,5.75
2023-05-24T01:10:12.350Z,6.50
2023-05-24T01:11:16.468Z,8.00
2023-05-24T01:12:20.651Z,6.00
2023-05-24T01:13:24.618Z,5.00
2023-05-24T01:14:28.654Z,6.75
2023-05-24T01:15:32.760Z,7.25
2023-05-24T01:16:36.941Z,5.50
2023-05-24T01:17:40.992Z,5.25
2023-05-24T01:18:45.057Z,6.50
2023-05-24T01:19:49.170Z,7.25
2023-05-24T01:20:53.381Z,6.00
2023-05-24T01:21:57.717Z,6.50
2023-05-24T01:23:01.696Z,7.25
2023-05-24T01:24:05.719Z,6.25
2023-05-24T01:25:09.583Z,6.50
2023-05-24T01:26:13.593Z,7.00
2023-05-24T01:27:17.796Z,7.50
2023-05-24T01:28:21.894Z,5.25
2023-05-24T01:29:26.006Z,6.00
2023-05-24T01:30:29.969Z,6.50
2023-05-24T01:31:34.157Z,6.00
2023-05-24T01:32:39.655Z,7.00
2023-05-24T01:33:43.991Z,8.00
2023-05-24T01:34:48.096Z,8.00
2023-05-24T01:35:52.264Z,5.25
2023-05-24T01:36:56.470Z,5.50
2023-05-24T01:38:00.772Z,6.50
2023-05-24T01:39:04.870Z,7.50
2023-05-24T01:40:09.288Z,8.00
2023-05-24T01:41:13.319Z,8.25
2023-05-24T01:42:17.402Z,6.75
2023-05-24T01:43:21.496Z,7.25
2023-05-24T01:44:25.513Z,7.00
2023-05-24T01:45:29.525Z,6.00
2023-05-24T01:46:33.612Z,6.75
2023-05-24T01:47:37.732Z,7.00
2023-05-24T01:48:41.909Z,7.25
2023-05-24T01:49:45.909Z,6.00
2023-05-24T01:50:53.094Z,6.25
2023-05-24T01:51:57.504Z,6.00
2023-05-24T01:53:01.949Z,5.75
2023-05-24T01:54:06.314Z,7.50
2023-05-24T01:55:10.546Z,7.75
2023-05-24T01:56:14.591Z,6.50
2023-05-24T01:57:18.930Z,8.00
2023-05-24T01:58:23.251Z,7.50
2023-05-24T01:59:27.752Z,6.50
2023-05-24T02:00:32.059Z,6.25
2023-05-24T02:01:36.767Z,6.50
2023-05-24T02:02:42.582Z,7.25
2023-05-24T02:03:46.839Z,8.25
2023-05-24T02:04:50.968Z,8.00
2023-05-24T02:05:55.238Z,6.50
2023-05-24T02:06:59.555Z,5.75
2023-05-24T02:08:03.965Z,7.50
2023-05-24T02:09:08.278Z,6.50
2023-05-24T02:10:12.481Z,6.50
2023-05-24T02:11:16.475Z,7.75
2023-05-24T02:12:20.474Z,7.50
2023-05-24T02:13:24.474Z,8.25
2023-05-24T02:14:28.416Z,6.75
2023-05-24T02:15:32.379Z,7.00
2023-05-24T02:16:36.545Z,5.75
2023-05-24T02:17:40.768Z,6.50
2023-05-24T02:18:45.255Z,7.25
2023-05-24T02:19:49.434Z,7.50
2023-05-24T02:20:53.645Z,6.25
2023-05-24T02:21:57.642Z,4.50
2023-05-24T02:23:01.719Z,4.75
2023-05-24T02:24:05.922Z,5.00
2023-05-24T02:25:10.337Z,4.50
2023-05-24T02:26:14.335Z,4.50
2023-05-24T02:27:18.443Z,4.50
2023-05-24T02:28:22.449Z,4.50
2023-05-24T02:29:26.625Z,6.25
2023-05-24T02:30:30.851Z,6.25
2023-05-24T02:31:35.116Z,7.00
2023-05-24T02:32:39.162Z,7.75
2023-05-24T02:33:43.278Z,9.50
2023-05-24T02:34:47.264Z,10.00
2023-05-24T02:35:51.247Z,9.25
2023-05-24T02:36:55.278Z,7.75
2023-05-24T02:37:59.373Z,7.50
2023-05-24T02:39:03.377Z,8.75
2023-05-24T02:40:07.405Z,9.50
2023-05-24T02:41:11.485Z,9.50
2023-05-24T02:42:15.595Z,9.50
2023-05-24T02:43:19.797Z,8.50
2023-05-24T02:44:23.797Z,7.75
2023-05-24T02:45:27.897Z,8.00
2023-05-24T02:46:32.287Z,8.50
2023-05-24T02:47:36.357Z,9.00
2023-05-24T02:48:40.407Z,8.75
2023-05-24T02:49:44.455Z,7.50
2023-05-24T02:50:48.817Z,8.00
2023-05-24T02:51:53.535Z,10.25
2023-05-24T02:52:57.958Z,10.25
2023-05-24T02:54:02.184Z,10.00
2023-05-24T02:55:06.372Z,10.00
2023-05-24T02:56:10.664Z,9.50
2023-05-24T02:57:15.176Z,8.50
2023-05-24T02:58:19.494Z,9.75
2023-05-24T02:59:23.689Z,9.50
2023-05-24T03:00:28.093Z,9.50
2023-05-24T03:01:32.435Z,10.25
2023-05-24T03:02:36.782Z,9.00
2023-05-24T03:03:41.324Z,9.00
2023-05-24T03:04:45.532Z,10.50
2023-05-24T03:05:49.747Z,10.25
2023-05-24T03:06:54.253Z,9.75
2023-05-24T03:07:58.581Z,9.75
2023-05-24T03:09:02.897Z,8.50
2023-05-24T03:10:07.074Z,8.50
2023-05-24T03:11:11.191Z,10.00
2023-05-24T03:12:15.260Z,9.25
2023-05-24T03:13:19.730Z,9.50
2023-05-24T03:14:23.902Z,10.50
2023-05-24T03:15:28.325Z,11.00
2023-05-24T03:16:32.605Z,10.75
2023-05-24T03:17:36.948Z,9.50
2023-05-24T03:18:41.569Z,9.00
2023-05-24T03:19:45.633Z,10.50
2023-05-24T03:20:49.960Z,11.00
2023-05-24T03:21:54.065Z,10.25
2023-05-24T03:22:58.388Z,8.50
2023-05-24T03:24:02.368Z,10.50
2023-05-24T03:25:06.475Z,9.50
2023-05-24T03:26:10.680Z,10.50
2023-05-24T03:27:14.993Z,11.00
2023-05-24T03:28:19.300Z,9.75
2023-05-24T03:29:23.400Z,9.00
2023-05-24T03:30:27.404Z,11.75
2023-05-24T03:31:31.789Z,10.00
2023-05-24T03:32:36.021Z,11.00
2023-05-24T03:33:40.330Z,8.25
2023-05-24T03:34:44.414Z,7.75
2023-05-24T03:35:48.632Z,7.00
2023-05-24T03:36:52.939Z,7.00
2023-05-24T03:37:57.362Z,8.25
2023-05-24T03:39:01.558Z,9.50
2023-05-24T03:40:05.971Z,8.25
2023-05-24T03:41:10.255Z,10.25
2023-05-24T03:42:14.594Z,9.50
2023-05-24T03:43:18.713Z,9.50
2023-05-24T03:44:22.999Z,10.00
2023-05-24T03:45:37.516Z,9.50
2023-05-24T03:46:32.190Z,8.50
2023-05-24T03:47:36.374Z,9.00
2023-05-24T03:48:40.439Z,8.25
2023-05-24T03:49:44.433Z,9.25
2023-05-24T03:50:48.358Z,9.75
2023-05-24T03:51:52.438Z,10.00
2023-05-24T03:52:56.450Z,8.50
2023-05-24T03:54:00.379Z,9.50
2023-05-24T03:55:04.348Z,9.50
2023-05-24T03:56:08.453Z,8.00
2023-05-24T03:57:12.562Z,7.00
2023-05-24T03:58:16.754Z,5.75
2023-05-24T03:59:20.858Z,4.50
2023-05-24T04:00:24.967Z,6.00
2023-05-24T04:01:34.302Z,9.75
2023-05-24T04:02:34.299Z,10.00
2023-05-24T04:03:38.468Z,9.00
2023-05-24T04:04:42.511Z,9.00
2023-05-24T04:05:46.615Z,8.00
2023-05-24T04:06:51.008Z,8.75
2023-05-24T04:07:55.115Z,7.25
2023-05-24T04:08:59.215Z,8.00
2023-05-24T04:10:03.329Z,8.50
2023-05-24T04:11:07.627Z,6.50
2023-05-24T04:12:11.938Z,5.50
2023-05-24T04:13:16.062Z,5.50
2023-05-24T04:14:20.147Z,5.50
2023-05-24T04:15:24.460Z,5.00
2023-05-24T04:16:28.800Z,5.00
2023-05-24T04:17:33.229Z,6.00
2023-05-24T04:18:37.621Z,7.25
2023-05-24T04:19:41.792Z,5.00
2023-05-24T04:20:46.212Z,5.50
2023-05-24T04:21:50.397Z,4.50
2023-05-24T04:22:54.614Z,4.50
2023-05-24T04:23:58.921Z,7.25
2023-05-24T04:25:03.269Z,6.75
2023-05-24T04:26:07.449Z,8.00
2023-05-24T04:27:11.667Z,8.25
2023-05-24T04:28:15.852Z,6.25
2023-05-24T04:29:20.159Z,4.25
2023-05-24T04:30:24.385Z,5.00
2023-05-24T04:31:28.493Z,4.50
2023-05-24T04:32:32.720Z,5.00
2023-05-24T04:33:36.900Z,5.25
2023-05-24T04:34:40.993Z,5.00
2023-05-24T04:35:45.437Z,4.50
2023-05-24T04:36:49.518Z,4.75
2023-05-24T04:37:53.617Z,5.00
2023-05-24T04:38:57.733Z,4.00
2023-05-24T04:40:02.032Z,4.00
2023-05-24T04:41:06.019Z,4.75
2023-05-24T04:42:10.035Z,5.00
2023-05-24T04:43:14.216Z,3.75
2023-05-24T04:44:18.440Z,4.50
2023-05-24T04:45:22.433Z,5.25
2023-05-24T04:46:26.680Z,3.75
2023-05-24T04:47:30.969Z,5.50
2023-05-24T04:48:36.426Z,5.25
2023-05-24T04:49:40.563Z,5.00
2023-05-24T04:50:44.906Z,5.00
2023-05-24T04:51:49.222Z,5.50
2023-05-24T04:52:53.609Z,6.00
2023-05-24T04:53:57.912Z,7.00
2023-05-24T04:55:02.331Z,6.00
2023-05-24T04:56:08.159Z,6.00
2023-05-24T04:57:12.174Z,5.75
2023-05-24T04:58:18.142Z,6.00
2023-05-24T04:59:22.534Z,5.50
2023-05-24T05:00:26.731Z,6.25
2023-05-24T05:01:31.204Z,7.00
2023-05-24T05:02:35.901Z,4.75
2023-05-24T05:03:40.362Z,5.50
2023-05-24T05:04:44.579Z,5.50
2023-05-24T05:05:48.997Z,5.75
2023-05-24T05:06:53.202Z,6.50
2023-05-24T05:07:57.514Z,5.75
2023-05-24T05:09:01.714Z,5.75
2023-05-24T05:10:06.123Z,4.75
2023-05-24T05:11:10.329Z,5.50
2023-05-24T05:12:14.328Z,5.00
2023-05-24T05:13:18.633Z,4.50
2023-05-24T05:14:22.658Z,6.25
2023-05-24T05:15:26.747Z,5.75
2023-05-24T05:16:30.975Z,6.00
2023-05-24T05:17:35.175Z,6.50
2023-05-24T05:18:39.250Z,5.50
2023-05-24T05:19:43.359Z,5.00
2023-05-24T05:20:47.809Z,6.00
2023-05-24T05:21:52.280Z,6.00
2023-05-24T05:22:56.488Z,5.50
2023-05-24T05:24:00.919Z,7.25
2023-05-24T05:25:04.906Z,6.75
2023-05-24T05:26:09.238Z,6.25
2023-05-24T05:27:13.319Z,6.00
2023-05-24T05:28:17.431Z,4.00
2023-05-24T05:29:22.890Z,5.00
2023-05-24T05:30:26.949Z,4.50
2023-05-24T05:31:30.978Z,4.50
2023-05-24T05:32:35.246Z,5.25
2023-05-24T05:33:39.471Z,5.50
2023-05-24T05:34:44.798Z,6.00
2023-05-24T05:35:49.005Z,5.00
2023-05-24T05:36:53.347Z,5.25
2023-05-24T05:37:57.524Z,4.75
2023-05-24T05:39:01.947Z,5.50
2023-05-24T05:40:06.232Z,5.50
2023-05-24T05:41:10.354Z,4.00
2023-05-24T05:42:14.854Z,6.00
2023-05-24T05:43:19.078Z,6.00
2023-05-24T05:44:23.467Z,6.00
2023-05-24T05:45:27.682Z,5.00
2023-05-24T05:46:32.105Z,5.50
2023-05-24T05:47:36.217Z,5.75
2023-05-24T05:48:40.394Z,5.00
2023-05-24T05:49:44.517Z,5.50
2023-05-24T05:50:48.611Z,7.00
2023-05-24T05:51:52.822Z,7.00
2023-05-24T05:52:56.924Z,6.50
2023-05-24T05:54:01.136Z,6.00
2023-05-24T05:55:05.120Z,5.50
2023-05-24T05:56:09.236Z,4.50
2023-05-24T05:57:13.336Z,5.25
2023-05-24T05:58:17.433Z,6.25
2023-05-24T05:59:21.432Z,6.00
2023-05-24T06:00:25.560Z,5.50
2023-05-24T06:01:29.749Z,5.50
2023-05-24T06:02:33.874Z,6.25
2023-05-24T06:03:38.154Z,6.00
2023-05-24T06:04:42.291Z,4.00
2023-05-24T06:05:46.362Z,5.00
2023-05-24T06:06:50.572Z,5.00
2023-05-24T06:07:54.760Z,5.50
2023-05-24T06:08:58.686Z,5.50
2023-05-24T06:10:02.769Z,6.00
2023-05-24T06:11:06.769Z,6.25
2023-05-24T06:12:10.780Z,6.00
2023-05-24T06:13:14.883Z,7.25
2023-05-24T06:14:19.196Z,6.50
2023-05-24T06:15:23.191Z,6.00
2023-05-24T06:16:27.532Z,6.25
2023-05-24T06:17:31.580Z,6.00
2023-05-24T06:18:38.071Z,5.50
2023-05-24T06:19:41.996Z,5.50
2023-05-24T06:20:46.097Z,5.50
2023-05-24T06:21:50.263Z,7.00
2023-05-24T06:22:54.636Z,5.75
2023-05-24T06:23:58.794Z,6.00
2023-05-24T06:25:03.099Z,5.50
2023-05-24T06:26:07.300Z,7.00
2023-05-24T06:27:12.920Z,7.50
2023-05-24T06:28:16.431Z,6.25
2023-05-24T06:29:20.425Z,6.50
2023-05-24T06:30:24.547Z,5.00
2023-05-24T06:31:28.572Z,6.75
2023-05-24T06:32:32.756Z,8.25
2023-05-24T06:33:37.921Z,7.75
2023-05-24T06:34:41.908Z,5.25
2023-05-24T06:35:46.075Z,7.00
2023-05-24T06:36:50.069Z,5.75
2023-05-24T06:37:54.291Z,5.50
2023-05-24T06:38:58.485Z,6.50
2023-05-24T06:40:02.484Z,7.00
2023-05-24T06:41:06.502Z,5.50
2023-05-24T06:42:10.389Z,5.50
2023-05-24T06:43:14.289Z,5.50
2023-05-24T06:44:18.401Z,5.75
2023-05-24T06:45:22.371Z,6.50
2023-05-24T06:46:26.398Z,7.00
2023-05-24T06:47:30.770Z,6.50
2023-05-24T06:48:35.062Z,6.50
2023-05-24T06:49:39.210Z,6.50
2023-05-24T06:50:44.318Z,7.25
2023-05-24T06:51:51.393Z,9.25
2023-05-24T06:52:55.426Z,8.00
2023-05-24T06:53:59.515Z,5.75
2023-05-24T06:55:03.614Z,7.00
2023-05-24T06:56:08.031Z,8.00
2023-05-24T06:57:12.028Z,8.50
2023-05-24T06:58:17.591Z,9.00
2023-05-24T06:59:21.879Z,7.50
2023-05-24T07:00:26.298Z,6.25
2023-05-24T07:01:30.669Z,6.50
2023-05-24T07:02:34.973Z,9.00
2023-05-24T07:03:39.126Z,8.50
2023-05-24T07:04:43.345Z,7.25
2023-05-24T07:05:47.625Z,9.00
2023-05-24T07:06:52.346Z,7.00
2023-05-24T07:07:56.750Z,8.00
2023-05-24T07:09:01.068Z,8.00
2023-05-24T07:10:05.331Z,6.25
2023-05-24T07:11:09.738Z,8.00
2023-05-24T07:12:14.086Z,8.50
2023-05-24T07:13:18.502Z,8.00
2023-05-24T07:14:22.806Z,8.50
2023-05-24T07:15:27.035Z,8.75
2023-05-24T07:16:31.233Z,9.25
2023-05-24T07:17:35.691Z,9.50
2023-05-24T07:18:39.939Z,8.50
2023-05-24T07:19:44.242Z,9.25
2023-05-24T07:20:48.772Z,9.00
2023-05-24T07:21:53.072Z,8.25
2023-05-24T07:22:57.371Z,7.00
2023-05-24T07:24:01.690Z,9.00
2023-05-24T07:25:05.900Z,8.25
2023-05-24T07:26:10.204Z,7.50
2023-05-24T07:27:14.201Z,8.00
2023-05-24T07:28:18.409Z,8.50
2023-05-24T07:29:22.613Z,9.50
2023-05-24T07:30:32.307Z,9.00
2023-05-24T07:31:33.812Z,9.00
2023-05-24T07:32:37.801Z,10.25
2023-05-24T07:33:41.976Z,10.50
2023-05-24T07:34:45.901Z,11.00
2023-05-24T07:35:49.909Z,9.75
2023-05-24T07:36:53.894Z,8.75
2023-05-24T07:37:57.895Z,7.50
2023-05-24T07:39:02.106Z,8.25
2023-05-24T07:40:06.209Z,9.00
2023-05-24T07:41:10.206Z,9.50
2023-05-24T07:42:14.110Z,9.00
2023-05-24T07:43:18.207Z,11.00
2023-05-24T07:44:22.177Z,10.50
2023-05-24T07:45:26.213Z,9.00
2023-05-24T07:46:30.365Z,8.75
2023-05-24T07:47:34.548Z,9.25
2023-05-24T07:48:38.771Z,10.50
2023-05-24T07:49:42.944Z,11.50
2023-05-24T07:50:46.922Z,11.00
2023-05-24T07:51:50.948Z,10.00
2023-05-24T07:52:55.034Z,10.50
2023-05-24T07:53:59.073Z,12.00
2023-05-24T07:55:03.258Z,11.50
2023-05-24T07:56:07.248Z,11.50
2023-05-24T07:57:11.555Z,12.00
2023-05-24T07:58:15.575Z,11.00
2023-05-24T07:59:19.995Z,9.25
2023-05-24T08:00:24.395Z,10.00
2023-05-24T08:01:28.329Z,9.50
2023-05-24T08:02:32.197Z,10.00
2023-05-24T08:03:36.303Z,12.25
2023-05-24T08:04:40.389Z,12.00
2023-05-24T08:05:44.833Z,11.00
2023-05-24T08:06:49.320Z,12.00
2023-05-24T08:07:53.423Z,12.25
2023-05-24T08:08:57.820Z,11.50
2023-05-24T08:10:02.042Z,10.50
2023-05-24T08:11:06.333Z,11.50
2023-05-24T08:12:10.744Z,13.00
2023-05-24T08:13:14.974Z,10.50
2023-05-24T08:14:19.053Z,10.50
2023-05-24T08:15:23.469Z,10.00
2023-05-24T08:16:27.798Z,11.25
2023-05-24T08:17:31.987Z,10.00
2023-05-24T08:18:36.184Z,10.50
2023-05-24T08:19:40.591Z,10.50
2023-05-24T08:20:44.996Z,11.25
2023-05-24T08:21:49.201Z,12.00
2023-05-24T08:22:53.616Z,11.00
2023-05-24T08:23:57.943Z,10.00
2023-05-24T08:25:02.231Z,11.50
2023-05-24T08:26:06.543Z,11.75
2023-05-24T08:27:10.849Z,10.75
2023-05-24T08:28:15.117Z,11.25
2023-05-24T08:29:19.302Z,10.75
2023-05-24T08:30:23.492Z,11.75
2023-05-24T08:31:27.461Z,12.75
2023-05-24T08:32:31.986Z,13.00
2023-05-24T08:33:36.189Z,10.50
2023-05-24T08:34:40.318Z,12.00
2023-05-24T08:35:44.584Z,12.50
2023-05-24T08:36:48.820Z,12.00
2023-05-24T08:37:52.807Z,11.50
2023-05-24T08:38:56.819Z,12.00
2023-05-24T08:40:00.841Z,11.00
2023-05-24T08:41:04.915Z,11.75
2023-05-24T08:42:10.095Z,12.50
2023-05-24T08:43:14.056Z,12.50
2023-05-24T08:44:18.042Z,11.00
2023-05-24T08:45:22.049Z,10.50
2023-05-24T08:46:26.587Z,11.50
2023-05-24T08:47:30.905Z,12.25
2023-05-24T08:48:35.367Z,12.00
2023-05-24T08:49:39.689Z,12.00
2023-05-24T08:50:44.103Z,10.50
2023-05-24T08:51:48.315Z,11.50
2023-05-24T08:52:52.626Z,14.25
2023-05-24T08:53:57.238Z,13.00
2023-05-24T08:55:01.671Z,11.50
2023-05-24T08:56:05.954Z,12.50
2023-05-24T08:57:10.256Z,12.75
2023-05-24T08:58:14.362Z,12.50
2023-05-24T08:59:18.325Z,12.00
2023-05-24T09:00:22.542Z,12.00
2023-05-24T09:01:28.927Z,13.00
2023-05-24T09:02:31.674Z,11.50
2023-05-24T09:03:35.790Z,11.00
2023-05-24T09:04:40.007Z,12.50
2023-05-24T09:05:44.418Z,13.50
2023-05-24T09:06:48.519Z,13.00
2023-05-24T09:07:52.632Z,12.25
2023-05-24T09:08:56.733Z,11.25
2023-05-24T09:10:00.831Z,10.50
2023-05-24T09:11:04.934Z,9.75
2023-05-24T09:12:08.968Z,10.50
2023-05-24T09:13:12.950Z,10.25
2023-05-24T09:14:16.937Z,12.00
2023-05-24T09:15:20.807Z,15.00
2023-05-24T09:16:24.857Z,12.50
2023-05-24T09:17:30.195Z,12.75
2023-05-24T09:18:34.074Z,12.50
2023-05-24T09:19:37.978Z,12.50
2023-05-24T09:20:42.335Z,14.00
2023-05-24T09:21:46.285Z,14.00
2023-05-24T09:22:50.279Z,12.50
2023-05-24T09:23:54.508Z,12.25
2023-05-24T09:24:58.453Z,11.75
2023-05-24T09:26:02.583Z,14.00
2023-05-24T09:27:06.557Z,17.50
2023-05-24T09:28:10.594Z,19.00
2023-05-24T09:29:14.687Z,19.25
2023-05-24T09:30:18.671Z,21.75
2023-05-24T09:31:22.647Z,21.00
2023-05-24T09:32:26.783Z,17.50
2023-05-24T09:33:30.789Z,16.25
2023-05-24T09:34:34.755Z,17.50
2023-05-24T09:35:38.799Z,15.50
2023-05-24T09:36:42.932Z,15.50
2023-05-24T09:37:46.912Z,14.75
2023-05-24T09:38:50.903Z,15.00
2023-05-24T09:39:55.529Z,15.50
2023-05-24T09:40:59.825Z,15.00
2023-05-24T09:42:04.068Z,15.25
2023-05-24T09:43:08.355Z,15.25
2023-05-24T09:44:12.767Z,13.50
2023-05-24T09:45:16.856Z,12.50
2023-05-24T09:46:21.194Z,13.50
2023-05-24T09:47:25.484Z,12.25
2023-05-24T09:48:29.887Z,12.00
2023-05-24T09:49:34.100Z,11.75
2023-05-24T09:50:38.498Z,12.50
2023-05-24T09:51:42.933Z,13.00
2023-05-24T09:52:47.113Z,12.50
2023-05-24T09:53:51.322Z,12.50
2023-05-24T09:54:56.245Z,14.00
2023-05-24T09:56:00.457Z,12.75
2023-05-24T09:57:05.290Z,12.50
2023-05-24T09:58:09.718Z,12.50
2023-05-24T09:59:13.931Z,16.00
2023-05-24T10:00:18.144Z,15.75
2023-05-24T10:01:22.521Z,14.75
2023-05-24T10:02:29.789Z,14.00
2023-05-24T10:03:32.546Z,14.25
2023-05-24T10:04:36.865Z,13.50
2023-05-24T10:05:40.966Z,14.00
2023-05-24T10:06:45.277Z,14.50
2023-05-24T10:07:49.513Z,15.00
2023-05-24T10:08:53.900Z,15.00
2023-05-24T10:09:58.509Z,14.75
2023-05-24T10:11:03.028Z,16.00
2023-05-24T10:12:07.348Z,17.50
2023-05-24T10:13:11.541Z,15.50
2023-05-24T10:14:15.774Z,13.50
2023-05-24T10:15:19.857Z,14.00
2023-05-24T10:16:24.207Z,15.00
2023-05-24T10:17:28.197Z,14.25
2023-05-24T10:18:32.470Z,13.00
2023-05-24T10:19:36.706Z,14.50
2023-05-24T10:20:42.159Z,16.00
2023-05-24T10:21:46.507Z,16.50
2023-05-24T10:22:50.438Z,16.25
2023-05-24T10:23:54.424Z,18.00
2023-05-24T10:24:58.525Z,15.50
2023-05-24T10:26:02.626Z,14.50
2023-05-24T10:27:06.720Z,15.50
2023-05-24T10:28:10.832Z,18.00
2023-05-24T10:29:15.033Z,18.75
2023-05-24T10:30:19.139Z,17.50
2023-05-24T10:31:23.254Z,16.00
2023-05-24T10:32:27.481Z,16.25
2023-05-24T10:33:31.548Z,17.50
2023-05-24T10:34:35.548Z,18.50
2023-05-24T10:35:39.664Z,17.25
2023-05-24T10:36:43.755Z,18.25
2023-05-24T10:37:50.415Z,17.75
2023-05-24T10:38:54.621Z,18.00
2023-05-24T10:39:58.736Z,19.00
2023-05-24T10:41:02.735Z,19.50
2023-05-24T10:42:09.579Z,20.00
2023-05-24T10:43:12.605Z,21.25
2023-05-24T10:44:16.480Z,19.25
2023-05-24T10:45:20.603Z,22.00
2023-05-24T10:46:24.922Z,23.50
2023-05-24T10:47:29.416Z,23.75
2023-05-24T10:48:34.528Z,22.50
2023-05-24T10:49:38.830Z,23.25
2023-05-24T10:50:43.550Z,24.00
2023-05-24T10:51:47.853Z,20.50
2023-05-24T10:52:51.861Z,19.75
2023-05-24T10:53:55.964Z,21.00
2023-05-24T10:55:03.214Z,22.00
2023-05-24T10:56:05.006Z,25.25
2023-05-24T10:57:08.993Z,24.50
2023-05-24T10:58:13.105Z,27.25
2023-05-24T10:59:17.295Z,27.25
2023-05-24T11:00:47.213Z,25.50
2023-05-24T11:01:26.352Z,24.25
2023-05-24T11:02:30.671Z,25.00
2023-05-24T11:03:34.760Z,24.00
2023-05-24T11:04:39.044Z,26.00
2023-05-24T11:05:44.386Z,25.00
2023-05-24T11:06:48.616Z,25.50
2023-05-24T11:07:52.682Z,26.00
2023-05-24T11:08:56.893Z,25.25
2023-05-24T11:10:01.230Z,25.00
2023-05-24T11:11:19.014Z,25.00
2023-05-24T11:12:10.706Z,25.00
2023-05-24T11:13:14.803Z,24.50
2023-05-24T11:14:20.447Z,23.50
2023-05-24T11:15:23.871Z,23.75
2023-05-24T11:16:27.681Z,23.50
2023-05-24T11:17:31.726Z,23.50
2023-05-24T11:18:35.650Z,26.25
2023-05-24T11:19:39.573Z,26.00
2023-05-24T11:20:43.926Z,23.50
2023-05-24T11:21:47.854Z,22.50
2023-05-24T11:22:51.706Z,23.00
2023-05-24T11:23:55.797Z,27.50
2023-05-24T11:24:59.785Z,43.00
2023-05-24T11:26:03.676Z,40.00
2023-05-24T11:27:07.784Z,25.00
2023-05-24T11:28:11.752Z,25.50
2023-05-24T11:29:15.684Z,27.25
2023-05-24T11:30:19.988Z,26.50
2023-05-24T11:31:24.250Z,25.50
2023-05-24T11:32:28.565Z,25.00
2023-05-24T11:33:32.810Z,23.00
2023-05-24T11:34:37.120Z,21.75
2023-05-24T11:35:41.290Z,23.00
2023-05-24T11:36:45.423Z,24.00
2023-05-24T11:37:49.432Z,23.50
2023-05-24T11:38:53.329Z,25.25
2023-05-24T11:39:57.327Z,25.75
2023-05-24T11:41:01.339Z,25.75
2023-05-24T11:42:05.537Z,24.00
2023-05-24T11:43:09.528Z,23.50
2023-05-24T11:44:13.543Z,20.25
2023-05-24T11:45:17.539Z,19.25
2023-05-24T11:46:21.715Z,17.50
2023-05-24T11:47:25.912Z,18.50
2023-05-24T11:48:29.951Z,20.00
2023-05-24T11:49:33.974Z,19.50
2023-05-24T11:50:48.808Z,21.00
2023-05-24T11:51:43.028Z,20.50
2023-05-24T11:52:47.081Z,20.25
2023-05-24T11:53:53.005Z,22.00
2023-05-24T11:54:56.321Z,21.75
2023-05-24T11:56:00.167Z,21.00
2023-05-24T11:57:04.126Z,19.75
2023-05-24T11:58:08.420Z,18.75
2023-05-24T11:59:12.429Z,18.50
2023-05-24T12:00:19.491Z,17.00
2023-05-24T12:01:23.523Z,18.00
2023-05-24T12:02:27.844Z,18.50
2023-05-24T12:03:32.359Z,19.00
2023-05-24T12:04:36.922Z,20.00
2023-05-24T12:05:43.596Z,18.75
2023-05-24T12:06:47.803Z,18.00
2023-05-24T12:07:52.072Z,18.00
2023-05-24T12:08:56.169Z,19.50
2023-05-24T12:10:00.007Z,19.50
2023-05-24T12:11:04.313Z,16.50
2023-05-24T12:12:08.521Z,17.00
2023-05-24T12:13:12.631Z,17.50
2023-05-24T12:14:16.840Z,15.50
2023-05-24T12:15:20.934Z,15.50
2023-05-24T12:16:25.120Z,16.25
2023-05-24T12:17:29.196Z,16.50
2023-05-24T12:18:34.175Z,17.00
2023-05-24T12:19:38.076Z,15.75
2023-05-24T12:20:42.338Z,15.00
2023-05-24T12:21:46.588Z,14.75
2023-05-24T12:22:50.701Z,15.00
2023-05-24T12:23:54.900Z,16.00
2023-05-24T12:24:59.209Z,14.50
2023-05-24T12:26:03.417Z,15.50
2023-05-24T12:27:08.208Z,15.00
2023-05-24T12:28:12.632Z,16.50
2023-05-24T12:29:16.793Z,16.25
2023-05-24T12:30:20.492Z,18.50
2023-05-24T12:31:24.483Z,15.00
2023-05-24T12:32:28.379Z,13.50
2023-05-24T12:33:32.326Z,16.00
2023-05-24T12:34:36.228Z,15.50
2023-05-24T12:35:40.137Z,14.75
2023-05-24T12:36:44.234Z,14.50
2023-05-24T12:37:48.346Z,14.00
2023-05-24T12:38:52.334Z,14.50
2023-05-24T12:39:56.158Z,15.00
2023-05-24T12:41:12.267Z,18.00
2023-05-24T12:42:05.265Z,17.75
2023-05-24T12:43:09.363Z,15.50
2023-05-24T12:44:13.465Z,13.25
2023-05-24T12:45:17.470Z,14.25
2023-05-24T12:46:21.542Z,16.50
2023-05-24T12:47:25.669Z,14.50
2023-05-24T12:48:29.792Z,14.50
2023-05-24T12:49:33.682Z,14.00
2023-05-24T12:50:37.779Z,12.00
2023-05-24T12:51:41.911Z,15.50
2023-05-24T12:52:45.998Z,15.50
2023-05-24T12:53:49.988Z,16.50
2023-05-24T12:54:54.029Z,14.75
2023-05-24T12:55:58.022Z,13.50
2023-05-24T12:57:01.997Z,13.50
2023-05-24T12:58:06.127Z,13.50
2023-05-24T12:59:10.195Z,14.00
2023-05-24T13:00:14.403Z,15.50
2023-05-24T13:01:18.372Z,18.00
2023-05-24T13:02:22.438Z,19.00
2023-05-24T13:03:26.513Z,19.00
2023-05-24T13:04:30.429Z,18.75
2023-05-24T13:05:34.426Z,17.00
2023-05-24T13:06:38.273Z,18.25
2023-05-24T13:07:42.115Z,18.00
2023-05-24T13:08:46.080Z,16.50
2023-05-24T13:09:50.020Z,13.50
2023-05-24T13:10:54.024Z,13.00
2023-05-24T13:11:58.011Z,14.25
2023-05-24T13:13:02.020Z,15.50
2023-05-24T13:14:06.033Z,15.50
2023-05-24T13:15:09.982Z,15.75
2023-05-24T13:16:13.855Z,15.50
2023-05-24T13:17:17.997Z,16.75
2023-05-24T13:18:22.013Z,16.50
2023-05-24T13:19:26.064Z,17.00
2023-05-24T13:20:30.111Z,17.50
2023-05-24T13:21:34.255Z,16.00
2023-05-24T13:22:38.120Z,14.50
2023-05-24T13:23:42.838Z,14.25
2023-05-24T13:24:47.456Z,15.50
2023-05-24T13:25:51.866Z,15.25
2023-05-24T13:26:55.572Z,16.75
2023-05-24T13:27:59.573Z,15.50
2023-05-24T13:30:09.534Z,16.50
2023-05-24T13:31:13.636Z,17.00
2023-05-24T13:32:17.838Z,17.00
2023-05-24T13:33:22.946Z,16.50
2023-05-24T13:34:27.149Z,16.25
2023-05-24T13:35:31.468Z,16.25
2023-05-24T13:36:35.973Z,17.50
2023-05-24T13:37:40.176Z,17.50
2023-05-24T13:38:44.352Z,17.00
2023-05-24T13:39:48.602Z,17.25
2023-05-24T13:40:52.936Z,16.50
2023-05-24T13:41:57.253Z,17.50
2023-05-24T13:43:01.416Z,17.75
2023-05-24T13:44:05.720Z,18.25
2023-05-24T13:45:09.593Z,17.50
2023-05-24T13:46:13.754Z,16.75
2023-05-24T13:47:27.157Z,17.25
2023-05-24T13:48:23.019Z,18.00
2023-05-24T13:49:27.262Z,21.00
2023-05-24T13:50:31.399Z,18.25
2023-05-24T13:51:35.573Z,18.00
2023-05-24T13:52:39.977Z,18.50
2023-05-24T13:53:44.093Z,18.00
2023-05-24T13:54:48.391Z,19.25
2023-05-24T13:55:52.711Z,19.50
2023-05-24T13:56:57.008Z,19.00
2023-05-24T13:58:01.118Z,18.25
2023-05-24T13:59:05.471Z,18.50
2023-05-24T14:00:09.864Z,19.50
2023-05-24T14:01:14.414Z,20.75
2023-05-24T14:02:18.778Z,19.25